sensor_id;sensor_type;location;lat;lon;timestamp;P1;durP1;ratioP1;P2;durP2;ratioP2
33690;SDS011;20026;50.058;18.428;2023-05-07T00:00:16;23.10;;;19.23;;
33690;SDS011;20026;50.058;18.428;2023-05-07T00:02:44;24.55;;;19.45;;
33690;SDS011;20026;50.058;18.428;2023-05-07T00:05:11;24.23;;;19.63;;
33690;SDS011;20026;50.058;18.428;2023-05-07T00:07:39;27.77;;;21.55;;
33690;SDS011;20026;50.058;18.428;2023-05-07T00:10:05;28.25;;;22.00;;
33690;SDS011;20026;50.058;18.428;2023-05-07T00:12:32;29.80;;;22.10;;
33690;SDS011;20026;50.058;18.428;2023-05-07T00:15:00;27.20;;;21.00;;
33690;SDS011;20026;50.058;18.428;2023-05-07T00:17:29;28.10;;;21.42;;
33690;SDS011;20026;50.058;18.428;2023-05-07T00:19:56;28.52;;;22.83;;
33690;SDS011;20026;50.058;18.428;2023-05-07T00:22:22;25.05;;;21.00;;
33690;SDS011;20026;50.058;18.428;2023-05-07T00:24:49;31.15;;;23.48;;
33690;SDS011;20026;50.058;18.428;2023-05-07T00:27:16;27.13;;;22.10;;
33690;SDS011;20026;50.058;18.428;2023-05-07T00:29:42;30.58;;;22.25;;
33690;SDS011;20026;50.058;18.428;2023-05-07T00:32:09;29.15;;;22.08;;
33690;SDS011;20026;50.058;18.428;2023-05-07T00:34:36;24.30;;;19.17;;
33690;SDS011;20026;50.058;18.428;2023-05-07T00:37:02;24.67;;;18.88;;
33690;SDS011;20026;50.058;18.428;2023-05-07T00:39:29;24.85;;;20.25;;
33690;SDS011;20026;50.058;18.428;2023-05-07T00:41:56;26.55;;;20.20;;
33690;SDS011;20026;50.058;18.428;2023-05-07T00:44:22;24.85;;;19.95;;
33690;SDS011;20026;50.058;18.428;2023-05-07T00:46:49;22.55;;;18.55;;
33690;SDS011;20026;50.058;18.428;2023-05-07T00:49:16;24.60;;;19.95;;
33690;SDS011;20026;50.058;18.428;2023-05-07T00:51:45;25.10;;;19.33;;
33690;SDS011;20026;50.058;18.428;2023-05-07T00:54:12;26.23;;;20.48;;
33690;SDS011;20026;50.058;18.428;2023-05-07T00:56:39;26.67;;;18.92;;
33690;SDS011;20026;50.058;18.428;2023-05-07T00:59:06;27.73;;;20.45;;
33690;SDS011;20026;50.058;18.428;2023-05-07T01:01:32;31.52;;;22.50;;
33690;SDS011;20026;50.058;18.428;2023-05-07T01:03:59;28.88;;;22.25;;
33690;SDS011;20026;50.058;18.428;2023-05-07T01:06:26;30.88;;;22.10;;
33690;SDS011;20026;50.058;18.428;2023-05-07T01:08:53;31.08;;;24.58;;
33690;SDS011;20026;50.058;18.428;2023-05-07T01:11:22;25.40;;;20.08;;
33690;SDS011;20026;50.058;18.428;2023-05-07T01:13:51;30.98;;;24.25;;
33690;SDS011;20026;50.058;18.428;2023-05-07T01:16:17;32.03;;;24.30;;
33690;SDS011;20026;50.058;18.428;2023-05-07T01:18:43;33.78;;;25.08;;
33690;SDS011;20026;50.058;18.428;2023-05-07T01:21:13;23.20;;;18.88;;
33690;SDS011;20026;50.058;18.428;2023-05-07T01:23:41;35.03;;;25.35;;
33690;SDS011;20026;50.058;18.428;2023-05-07T01:26:08;35.05;;;25.27;;
33690;SDS011;20026;50.058;18.428;2023-05-07T01:28:34;32.95;;;25.23;;
33690;SDS011;20026;50.058;18.428;2023-05-07T01:31:01;33.63;;;24.98;;
33690;SDS011;20026;50.058;18.428;2023-05-07T01:33:28;32.15;;;23.80;;
33690;SDS011;20026;50.058;18.428;2023-05-07T01:35:56;33.50;;;24.73;;
33690;SDS011;20026;50.058;18.428;2023-05-07T01:38:25;29.92;;;21.48;;
33690;SDS011;20026;50.058;18.428;2023-05-07T01:40:52;30.40;;;22.20;;
33690;SDS011;20026;50.058;18.428;2023-05-07T01:43:19;28.95;;;21.75;;
33690;SDS011;20026;50.058;18.428;2023-05-07T01:45:45;32.08;;;22.92;;
33690;SDS011;20026;50.058;18.428;2023-05-07T01:48:14;28.88;;;22.60;;
33690;SDS011;20026;50.058;18.428;2023-05-07T01:50:41;32.45;;;23.13;;
33690;SDS011;20026;50.058;18.428;2023-05-07T01:53:08;32.05;;;23.25;;
33690;SDS011;20026;50.058;18.428;2023-05-07T01:55:35;29.88;;;23.45;;
33690;SDS011;20026;50.058;18.428;2023-05-07T02:00:31;32.42;;;24.20;;
33690;SDS011;20026;50.058;18.428;2023-05-07T02:02:57;36.22;;;24.27;;
33690;SDS011;20026;50.058;18.428;2023-05-07T02:05:28;33.35;;;24.10;;
33690;SDS011;20026;50.058;18.428;2023-05-07T02:07:54;35.63;;;24.90;;
33690;SDS011;20026;50.058;18.428;2023-05-07T02:10:20;37.45;;;25.75;;
33690;SDS011;20026;50.058;18.428;2023-05-07T02:12:47;38.00;;;26.42;;
33690;SDS011;20026;50.058;18.428;2023-05-07T02:15:13;37.53;;;26.30;;
33690;SDS011;20026;50.058;18.428;2023-05-07T02:17:57;38.30;;;26.88;;
33690;SDS011;20026;50.058;18.428;2023-05-07T02:20:25;40.28;;;28.38;;
33690;SDS011;20026;50.058;18.428;2023-05-07T02:22:51;39.90;;;28.83;;
33690;SDS011;20026;50.058;18.428;2023-05-07T02:25:18;40.25;;;28.85;;
33690;SDS011;20026;50.058;18.428;2023-05-07T02:27:49;39.50;;;28.60;;
33690;SDS011;20026;50.058;18.428;2023-05-07T02:30:16;41.63;;;29.40;;
33690;SDS011;20026;50.058;18.428;2023-05-07T02:32:42;42.38;;;30.70;;
33690;SDS011;20026;50.058;18.428;2023-05-07T02:35:09;38.63;;;29.55;;
33690;SDS011;20026;50.058;18.428;2023-05-07T02:37:36;44.63;;;30.55;;
33690;SDS011;20026;50.058;18.428;2023-05-07T02:40:03;44.15;;;30.98;;
33690;SDS011;20026;50.058;18.428;2023-05-07T02:42:30;44.08;;;30.48;;
33690;SDS011;20026;50.058;18.428;2023-05-07T02:44:56;40.92;;;28.80;;
33690;SDS011;20026;50.058;18.428;2023-05-07T02:47:24;37.55;;;27.15;;
33690;SDS011;20026;50.058;18.428;2023-05-07T02:49:56;36.45;;;26.55;;
33690;SDS011;20026;50.058;18.428;2023-05-07T02:52:23;37.70;;;25.48;;
33690;SDS011;20026;50.058;18.428;2023-05-07T02:54:49;37.80;;;26.35;;
33690;SDS011;20026;50.058;18.428;2023-05-07T02:57:16;38.83;;;25.92;;
33690;SDS011;20026;50.058;18.428;2023-05-07T02:59:42;44.08;;;26.63;;
33690;SDS011;20026;50.058;18.428;2023-05-07T03:02:09;46.42;;;26.67;;
33690;SDS011;20026;50.058;18.428;2023-05-07T03:04:35;37.25;;;25.42;;
33690;SDS011;20026;50.058;18.428;2023-05-07T03:07:01;39.17;;;26.27;;
33690;SDS011;20026;50.058;18.428;2023-05-07T03:09:28;41.03;;;26.33;;
33690;SDS011;20026;50.058;18.428;2023-05-07T03:11:55;41.45;;;25.27;;
33690;SDS011;20026;50.058;18.428;2023-05-07T03:14:22;42.63;;;26.40;;
33690;SDS011;20026;50.058;18.428;2023-05-07T03:16:49;46.60;;;29.02;;
33690;SDS011;20026;50.058;18.428;2023-05-07T03:19:15;39.83;;;25.23;;
33690;SDS011;20026;50.058;18.428;2023-05-07T03:21:42;41.97;;;27.77;;
33690;SDS011;20026;50.058;18.428;2023-05-07T03:24:09;36.17;;;25.70;;
33690;SDS011;20026;50.058;18.428;2023-05-07T03:26:36;35.97;;;22.63;;
33690;SDS011;20026;50.058;18.428;2023-05-07T03:29:03;33.85;;;23.88;;
33690;SDS011;20026;50.058;18.428;2023-05-07T03:31:31;30.27;;;20.83;;
33690;SDS011;20026;50.058;18.428;2023-05-07T03:33:58;33.03;;;20.65;;
33690;SDS011;20026;50.058;18.428;2023-05-07T03:36:24;32.75;;;20.50;;
33690;SDS011;20026;50.058;18.428;2023-05-07T03:38:52;30.83;;;20.90;;
33690;SDS011;20026;50.058;18.428;2023-05-07T03:41:21;32.30;;;20.63;;
33690;SDS011;20026;50.058;18.428;2023-05-07T03:43:48;32.83;;;22.10;;
33690;SDS011;20026;50.058;18.428;2023-05-07T03:46:14;32.25;;;20.58;;
33690;SDS011;20026;50.058;18.428;2023-05-07T03:51:12;31.80;;;20.05;;
33690;SDS011;20026;50.058;18.428;2023-05-07T03:53:43;27.38;;;19.70;;
33690;SDS011;20026;50.058;18.428;2023-05-07T03:56:11;27.20;;;17.38;;
33690;SDS011;20026;50.058;18.428;2023-05-07T03:58:38;26.05;;;17.17;;
33690;SDS011;20026;50.058;18.428;2023-05-07T04:01:04;24.48;;;17.48;;
33690;SDS011;20026;50.058;18.428;2023-05-07T04:03:32;23.58;;;16.15;;
33690;SDS011;20026;50.058;18.428;2023-05-07T04:05:59;24.27;;;16.60;;
33690;SDS011;20026;50.058;18.428;2023-05-07T04:08:25;19.25;;;14.65;;
33690;SDS011;20026;50.058;18.428;2023-05-07T04:11:00;21.70;;;14.50;;
33690;SDS011;20026;50.058;18.428;2023-05-07T04:13:27;21.67;;;14.70;;
33690;SDS011;20026;50.058;18.428;2023-05-07T04:15:54;20.02;;;14.30;;
33690;SDS011;20026;50.058;18.428;2023-05-07T04:18:21;21.88;;;14.25;;
33690;SDS011;20026;50.058;18.428;2023-05-07T04:20:48;19.33;;;14.10;;
33690;SDS011;20026;50.058;18.428;2023-05-07T04:23:15;21.38;;;15.00;;
33690;SDS011;20026;50.058;18.428;2023-05-07T04:25:41;19.25;;;14.18;;
33690;SDS011;20026;50.058;18.428;2023-05-07T04:28:08;22.52;;;15.80;;
33690;SDS011;20026;50.058;18.428;2023-05-07T04:30:34;25.30;;;16.30;;
33690;SDS011;20026;50.058;18.428;2023-05-07T04:33:01;23.05;;;15.98;;
33690;SDS011;20026;50.058;18.428;2023-05-07T04:35:27;23.65;;;15.77;;
33690;SDS011;20026;50.058;18.428;2023-05-07T04:37:53;25.65;;;16.60;;
33690;SDS011;20026;50.058;18.428;2023-05-07T04:40:20;25.45;;;16.90;;
33690;SDS011;20026;50.058;18.428;2023-05-07T04:42:47;23.77;;;16.38;;
33690;SDS011;20026;50.058;18.428;2023-05-07T04:45:13;25.52;;;16.77;;
33690;SDS011;20026;50.058;18.428;2023-05-07T04:47:41;25.20;;;16.92;;
33690;SDS011;20026;50.058;18.428;2023-05-07T04:50:07;26.77;;;17.13;;
33690;SDS011;20026;50.058;18.428;2023-05-07T04:52:33;24.63;;;15.75;;
33690;SDS011;20026;50.058;18.428;2023-05-07T04:55:00;24.55;;;16.80;;
33690;SDS011;20026;50.058;18.428;2023-05-07T04:57:27;22.20;;;14.52;;
33690;SDS011;20026;50.058;18.428;2023-05-07T04:59:53;23.08;;;17.05;;
33690;SDS011;20026;50.058;18.428;2023-05-07T05:02:20;19.13;;;14.88;;
33690;SDS011;20026;50.058;18.428;2023-05-07T05:04:46;20.15;;;13.20;;
33690;SDS011;20026;50.058;18.428;2023-05-07T05:07:13;19.52;;;13.45;;
33690;SDS011;20026;50.058;18.428;2023-05-07T05:09:41;22.02;;;14.15;;
33690;SDS011;20026;50.058;18.428;2023-05-07T05:12:08;19.77;;;15.07;;
33690;SDS011;20026;50.058;18.428;2023-05-07T05:14:35;20.08;;;13.55;;
33690;SDS011;20026;50.058;18.428;2023-05-07T05:17:01;22.15;;;14.95;;
33690;SDS011;20026;50.058;18.428;2023-05-07T05:19:29;17.25;;;11.93;;
33690;SDS011;20026;50.058;18.428;2023-05-07T05:21:56;16.60;;;12.60;;
33690;SDS011;20026;50.058;18.428;2023-05-07T05:24:24;18.20;;;13.48;;
33690;SDS011;20026;50.058;18.428;2023-05-07T05:26:51;21.67;;;14.27;;
33690;SDS011;20026;50.058;18.428;2023-05-07T05:29:19;20.55;;;14.93;;
33690;SDS011;20026;50.058;18.428;2023-05-07T05:31:46;24.08;;;14.98;;
33690;SDS011;20026;50.058;18.428;2023-05-07T05:34:13;22.90;;;15.18;;
33690;SDS011;20026;50.058;18.428;2023-05-07T05:36:39;26.00;;;16.80;;
33690;SDS011;20026;50.058;18.428;2023-05-07T05:39:05;24.08;;;16.83;;
33690;SDS011;20026;50.058;18.428;2023-05-07T05:41:33;25.42;;;16.08;;
33690;SDS011;20026;50.058;18.428;2023-05-07T05:44:00;23.40;;;16.25;;
33690;SDS011;20026;50.058;18.428;2023-05-07T05:46:30;25.10;;;15.40;;
33690;SDS011;20026;50.058;18.428;2023-05-07T05:48:57;27.30;;;16.15;;
33690;SDS011;20026;50.058;18.428;2023-05-07T05:51:23;24.08;;;15.98;;
33690;SDS011;20026;50.058;18.428;2023-05-07T05:53:51;20.92;;;13.73;;
33690;SDS011;20026;50.058;18.428;2023-05-07T05:56:17;20.83;;;14.75;;
33690;SDS011;20026;50.058;18.428;2023-05-07T05:58:44;19.65;;;13.00;;
33690;SDS011;20026;50.058;18.428;2023-05-07T06:01:11;17.63;;;11.70;;
33690;SDS011;20026;50.058;18.428;2023-05-07T06:03:37;15.93;;;10.82;;
33690;SDS011;20026;50.058;18.428;2023-05-07T06:06:04;17.00;;;11.35;;
33690;SDS011;20026;50.058;18.428;2023-05-07T06:08:31;16.35;;;11.80;;
33690;SDS011;20026;50.058;18.428;2023-05-07T06:10:57;17.17;;;11.30;;
33690;SDS011;20026;50.058;18.428;2023-05-07T06:13:25;15.00;;;9.98;;
33690;SDS011;20026;50.058;18.428;2023-05-07T06:15:51;17.77;;;12.15;;
33690;SDS011;20026;50.058;18.428;2023-05-07T06:18:18;22.52;;;16.73;;
33690;SDS011;20026;50.058;18.428;2023-05-07T06:23:14;20.10;;;16.17;;
33690;SDS011;20026;50.058;18.428;2023-05-07T06:25:41;15.60;;;11.57;;
33690;SDS011;20026;50.058;18.428;2023-05-07T06:28:08;18.85;;;12.00;;
33690;SDS011;20026;50.058;18.428;2023-05-07T06:30:36;17.02;;;10.88;;
33690;SDS011;20026;50.058;18.428;2023-05-07T06:33:03;13.75;;;8.80;;
33690;SDS011;20026;50.058;18.428;2023-05-07T06:35:32;11.50;;;7.90;;
33690;SDS011;20026;50.058;18.428;2023-05-07T06:37:59;12.50;;;8.13;;
33690;SDS011;20026;50.058;18.428;2023-05-07T06:40:27;16.90;;;9.77;;
33690;SDS011;20026;50.058;18.428;2023-05-07T06:42:53;32.75;;;13.95;;
33690;SDS011;20026;50.058;18.428;2023-05-07T06:45:24;26.50;;;12.73;;
33690;SDS011;20026;50.058;18.428;2023-05-07T06:47:50;14.65;;;9.40;;
33690;SDS011;20026;50.058;18.428;2023-05-07T06:50:17;12.95;;;8.43;;
33690;SDS011;20026;50.058;18.428;2023-05-07T06:52:43;12.85;;;9.52;;
33690;SDS011;20026;50.058;18.428;2023-05-07T06:55:10;13.48;;;8.77;;
33690;SDS011;20026;50.058;18.428;2023-05-07T06:57:36;14.05;;;8.70;;
33690;SDS011;20026;50.058;18.428;2023-05-07T07:00:03;12.70;;;8.73;;
33690;SDS011;20026;50.058;18.428;2023-05-07T07:02:32;10.70;;;7.18;;
33690;SDS011;20026;50.058;18.428;2023-05-07T07:04:58;9.48;;;7.50;;
33690;SDS011;20026;50.058;18.428;2023-05-07T07:07:24;12.95;;;8.70;;
33690;SDS011;20026;50.058;18.428;2023-05-07T07:09:50;9.85;;;7.78;;
33690;SDS011;20026;50.058;18.428;2023-05-07T07:12:18;9.65;;;7.68;;
33690;SDS011;20026;50.058;18.428;2023-05-07T07:14:45;9.38;;;7.43;;
33690;SDS011;20026;50.058;18.428;2023-05-07T07:17:11;12.73;;;9.50;;
33690;SDS011;20026;50.058;18.428;2023-05-07T07:19:38;17.20;;;12.85;;
33690;SDS011;20026;50.058;18.428;2023-05-07T07:22:05;18.45;;;12.43;;
33690;SDS011;20026;50.058;18.428;2023-05-07T07:24:31;15.38;;;11.75;;
33690;SDS011;20026;50.058;18.428;2023-05-07T07:26:58;14.40;;;11.57;;
33690;SDS011;20026;50.058;18.428;2023-05-07T07:29:24;14.32;;;10.80;;
33690;SDS011;20026;50.058;18.428;2023-05-07T07:31:52;18.50;;;12.02;;
33690;SDS011;20026;50.058;18.428;2023-05-07T07:34:18;28.45;;;18.58;;
33690;SDS011;20026;50.058;18.428;2023-05-07T07:36:45;23.52;;;15.85;;
33690;SDS011;20026;50.058;18.428;2023-05-07T07:39:11;20.67;;;15.05;;
33690;SDS011;20026;50.058;18.428;2023-05-07T07:41:38;18.50;;;15.30;;
33690;SDS011;20026;50.058;18.428;2023-05-07T07:44:04;19.67;;;13.63;;
33690;SDS011;20026;50.058;18.428;2023-05-07T07:46:32;19.77;;;14.23;;
33690;SDS011;20026;50.058;18.428;2023-05-07T07:48:59;22.55;;;15.27;;
33690;SDS011;20026;50.058;18.428;2023-05-07T07:51:25;21.23;;;15.10;;
33690;SDS011;20026;50.058;18.428;2023-05-07T07:53:52;21.70;;;14.82;;
33690;SDS011;20026;50.058;18.428;2023-05-07T07:56:19;17.02;;;12.57;;
33690;SDS011;20026;50.058;18.428;2023-05-07T07:58:45;16.27;;;11.90;;
33690;SDS011;20026;50.058;18.428;2023-05-07T08:01:12;17.77;;;12.65;;
33690;SDS011;20026;50.058;18.428;2023-05-07T08:03:38;18.77;;;11.50;;
33690;SDS011;20026;50.058;18.428;2023-05-07T08:06:04;19.52;;;13.50;;
33690;SDS011;20026;50.058;18.428;2023-05-07T08:08:35;19.10;;;12.63;;
33690;SDS011;20026;50.058;18.428;2023-05-07T08:11:06;19.83;;;13.27;;
33690;SDS011;20026;50.058;18.428;2023-05-07T08:13:33;19.40;;;13.18;;
33690;SDS011;20026;50.058;18.428;2023-05-07T08:16:00;15.75;;;10.23;;
33690;SDS011;20026;50.058;18.428;2023-05-07T08:18:26;39.15;;;20.77;;
33690;SDS011;20026;50.058;18.428;2023-05-07T08:20:54;9.10;;;7.25;;
33690;SDS011;20026;50.058;18.428;2023-05-07T08:23:21;10.02;;;6.57;;
33690;SDS011;20026;50.058;18.428;2023-05-07T08:25:49;10.65;;;7.82;;
33690;SDS011;20026;50.058;18.428;2023-05-07T08:28:16;8.82;;;7.70;;
33690;SDS011;20026;50.058;18.428;2023-05-07T08:30:42;12.15;;;9.13;;
33690;SDS011;20026;50.058;18.428;2023-05-07T08:33:10;9.38;;;7.80;;
33690;SDS011;20026;50.058;18.428;2023-05-07T08:35:36;10.15;;;7.32;;
33690;SDS011;20026;50.058;18.428;2023-05-07T08:38:04;9.55;;;6.80;;
33690;SDS011;20026;50.058;18.428;2023-05-07T08:40:30;8.35;;;5.95;;
33690;SDS011;20026;50.058;18.428;2023-05-07T08:43:00;12.48;;;7.55;;
33690;SDS011;20026;50.058;18.428;2023-05-07T08:45:27;7.28;;;6.05;;
33690;SDS011;20026;50.058;18.428;2023-05-07T08:47:55;6.28;;;5.05;;
33690;SDS011;20026;50.058;18.428;2023-05-07T08:52:50;6.82;;;4.57;;
33690;SDS011;20026;50.058;18.428;2023-05-07T08:55:16;7.60;;;5.47;;
33690;SDS011;20026;50.058;18.428;2023-05-07T08:57:43;8.60;;;5.20;;
33690;SDS011;20026;50.058;18.428;2023-05-07T09:00:10;6.07;;;4.13;;
33690;SDS011;20026;50.058;18.428;2023-05-07T09:02:37;4.18;;;3.67;;
33690;SDS011;20026;50.058;18.428;2023-05-07T09:05:03;7.68;;;5.03;;
33690;SDS011;20026;50.058;18.428;2023-05-07T09:07:29;17.05;;;6.65;;
33690;SDS011;20026;50.058;18.428;2023-05-07T09:09:56;13.30;;;5.97;;
33690;SDS011;20026;50.058;18.428;2023-05-07T09:12:23;3.72;;;3.33;;
33690;SDS011;20026;50.058;18.428;2023-05-07T09:14:49;4.90;;;3.30;;
33690;SDS011;20026;50.058;18.428;2023-05-07T09:17:16;5.15;;;3.88;;
33690;SDS011;20026;50.058;18.428;2023-05-07T09:19:47;6.53;;;5.13;;
33690;SDS011;20026;50.058;18.428;2023-05-07T09:22:14;6.30;;;4.47;;
33690;SDS011;20026;50.058;18.428;2023-05-07T09:24:40;4.78;;;4.20;;
33690;SDS011;20026;50.058;18.428;2023-05-07T09:27:07;9.18;;;6.18;;
33690;SDS011;20026;50.058;18.428;2023-05-07T09:29:35;13.13;;;6.40;;
33690;SDS011;20026;50.058;18.428;2023-05-07T09:32:03;8.75;;;5.00;;
33690;SDS011;20026;50.058;18.428;2023-05-07T09:34:30;12.75;;;7.28;;
33690;SDS011;20026;50.058;18.428;2023-05-07T09:37:03;12.18;;;6.80;;
33690;SDS011;20026;50.058;18.428;2023-05-07T09:39:39;10.27;;;5.90;;
33690;SDS011;20026;50.058;18.428;2023-05-07T09:42:06;8.98;;;5.00;;
33690;SDS011;20026;50.058;18.428;2023-05-07T09:44:33;6.95;;;5.25;;
33690;SDS011;20026;50.058;18.428;2023-05-07T09:47:00;7.15;;;5.53;;
33690;SDS011;20026;50.058;18.428;2023-05-07T09:49:28;5.20;;;4.47;;
33690;SDS011;20026;50.058;18.428;2023-05-07T09:51:56;4.93;;;3.83;;
33690;SDS011;20026;50.058;18.428;2023-05-07T09:54:24;7.40;;;5.00;;
33690;SDS011;20026;50.058;18.428;2023-05-07T09:56:51;9.30;;;6.20;;
33690;SDS011;20026;50.058;18.428;2023-05-07T09:59:18;6.32;;;4.53;;
33690;SDS011;20026;50.058;18.428;2023-05-07T10:01:44;5.20;;;4.05;;
33690;SDS011;20026;50.058;18.428;2023-05-07T10:04:11;9.73;;;5.25;;
33690;SDS011;20026;50.058;18.428;2023-05-07T10:06:38;7.18;;;4.57;;
33690;SDS011;20026;50.058;18.428;2023-05-07T10:09:05;9.98;;;6.05;;
33690;SDS011;20026;50.058;18.428;2023-05-07T10:11:34;26.27;;;13.95;;
33690;SDS011;20026;50.058;18.428;2023-05-07T10:14:01;11.50;;;7.75;;
33690;SDS011;20026;50.058;18.428;2023-05-07T10:16:31;10.10;;;6.97;;
33690;SDS011;20026;50.058;18.428;2023-05-07T10:19:04;13.52;;;9.02;;
33690;SDS011;20026;50.058;18.428;2023-05-07T10:21:31;10.43;;;7.80;;
33690;SDS011;20026;50.058;18.428;2023-05-07T10:24:05;16.35;;;12.32;;
33690;SDS011;20026;50.058;18.428;2023-05-07T10:26:33;9.73;;;8.38;;
33690;SDS011;20026;50.058;18.428;2023-05-07T10:29:16;8.27;;;7.32;;
33690;SDS011;20026;50.058;18.428;2023-05-07T10:31:48;7.63;;;5.97;;
33690;SDS011;20026;50.058;18.428;2023-05-07T10:34:17;7.18;;;6.13;;
33690;SDS011;20026;50.058;18.428;2023-05-07T10:36:45;8.88;;;6.15;;
33690;SDS011;20026;50.058;18.428;2023-05-07T10:39:12;6.63;;;5.88;;
33690;SDS011;20026;50.058;18.428;2023-05-07T10:41:38;7.15;;;5.75;;
33690;SDS011;20026;50.058;18.428;2023-05-07T10:44:05;11.55;;;8.23;;
33690;SDS011;20026;50.058;18.428;2023-05-07T10:46:37;12.73;;;9.38;;
33690;SDS011;20026;50.058;18.428;2023-05-07T10:51:33;17.27;;;11.70;;
33690;SDS011;20026;50.058;18.428;2023-05-07T10:56:42;21.95;;;15.90;;
33690;SDS011;20026;50.058;18.428;2023-05-07T10:59:30;39.80;;;25.70;;
33690;SDS011;20026;50.058;18.428;2023-05-07T11:01:57;15.00;;;10.02;;
33690;SDS011;20026;50.058;18.428;2023-05-07T11:04:31;46.92;;;25.95;;
33690;SDS011;20026;50.058;18.428;2023-05-07T11:15:12;18.13;;;8.88;;
33690;SDS011;20026;50.058;18.428;2023-05-07T11:17:58;33.88;;;19.45;;
33690;SDS011;20026;50.058;18.428;2023-05-07T11:23:54;10.15;;;7.78;;
33690;SDS011;20026;50.058;18.428;2023-05-07T11:25:59;7.70;;;6.32;;
33690;SDS011;20026;50.058;18.428;2023-05-07T11:28:29;11.63;;;8.75;;
33690;SDS011;20026;50.058;18.428;2023-05-07T11:30:56;12.57;;;8.45;;
33690;SDS011;20026;50.058;18.428;2023-05-07T11:33:23;10.77;;;7.35;;
33690;SDS011;20026;50.058;18.428;2023-05-07T11:38:22;16.05;;;10.10;;
33690;SDS011;20026;50.058;18.428;2023-05-07T11:43:15;15.48;;;9.15;;
33690;SDS011;20026;50.058;18.428;2023-05-07T11:45:42;11.82;;;8.10;;
33690;SDS011;20026;50.058;18.428;2023-05-07T11:48:08;12.65;;;7.50;;
33690;SDS011;20026;50.058;18.428;2023-05-07T11:50:35;9.82;;;7.07;;
33690;SDS011;20026;50.058;18.428;2023-05-07T11:53:07;13.40;;;6.80;;
33690;SDS011;20026;50.058;18.428;2023-05-07T11:55:34;14.20;;;9.07;;
33690;SDS011;20026;50.058;18.428;2023-05-07T11:58:01;10.43;;;6.78;;
33690;SDS011;20026;50.058;18.428;2023-05-07T12:00:27;19.13;;;11.00;;
33690;SDS011;20026;50.058;18.428;2023-05-07T12:02:53;13.98;;;9.90;;
33690;SDS011;20026;50.058;18.428;2023-05-07T12:05:21;13.05;;;8.43;;
33690;SDS011;20026;50.058;18.428;2023-05-07T12:07:48;15.05;;;9.85;;
33690;SDS011;20026;50.058;18.428;2023-05-07T12:10:20;15.88;;;11.02;;
33690;SDS011;20026;50.058;18.428;2023-05-07T12:12:47;14.93;;;9.85;;
33690;SDS011;20026;50.058;18.428;2023-05-07T12:15:17;14.90;;;9.20;;
33690;SDS011;20026;50.058;18.428;2023-05-07T12:17:44;20.67;;;11.90;;
33690;SDS011;20026;50.058;18.428;2023-05-07T12:20:10;21.48;;;13.82;;
33690;SDS011;20026;50.058;18.428;2023-05-07T12:22:37;34.08;;;14.00;;
33690;SDS011;20026;50.058;18.428;2023-05-07T12:25:04;27.13;;;14.90;;
33690;SDS011;20026;50.058;18.428;2023-05-07T12:27:30;19.08;;;14.52;;
33690;SDS011;20026;50.058;18.428;2023-05-07T12:29:57;16.55;;;12.88;;
33690;SDS011;20026;50.058;18.428;2023-05-07T12:32:24;10.38;;;7.50;;
33690;SDS011;20026;50.058;18.428;2023-05-07T12:34:51;12.70;;;9.07;;
33690;SDS011;20026;50.058;18.428;2023-05-07T12:37:22;17.02;;;12.48;;
33690;SDS011;20026;50.058;18.428;2023-05-07T12:40:03;18.15;;;13.38;;
33690;SDS011;20026;50.058;18.428;2023-05-07T12:42:33;12.10;;;10.23;;
33690;SDS011;20026;50.058;18.428;2023-05-07T12:44:59;14.05;;;9.88;;
33690;SDS011;20026;50.058;18.428;2023-05-07T12:47:27;22.17;;;15.38;;
33690;SDS011;20026;50.058;18.428;2023-05-07T12:49:54;30.88;;;18.85;;
33690;SDS011;20026;50.058;18.428;2023-05-07T12:52:23;23.17;;;14.88;;
33690;SDS011;20026;50.058;18.428;2023-05-07T12:54:50;18.13;;;13.13;;
33690;SDS011;20026;50.058;18.428;2023-05-07T12:57:18;15.57;;;11.82;;
33690;SDS011;20026;50.058;18.428;2023-05-07T12:59:45;18.65;;;11.65;;
33690;SDS011;20026;50.058;18.428;2023-05-07T13:02:12;12.80;;;8.13;;
33690;SDS011;20026;50.058;18.428;2023-05-07T13:04:38;15.57;;;10.80;;
33690;SDS011;20026;50.058;18.428;2023-05-07T13:07:05;18.92;;;13.05;;
33690;SDS011;20026;50.058;18.428;2023-05-07T13:09:35;16.55;;;13.32;;
33690;SDS011;20026;50.058;18.428;2023-05-07T13:12:02;15.88;;;10.07;;
33690;SDS011;20026;50.058;18.428;2023-05-07T13:14:28;17.30;;;10.10;;
33690;SDS011;20026;50.058;18.428;2023-05-07T13:16:55;16.65;;;10.90;;
33690;SDS011;20026;50.058;18.428;2023-05-07T13:19:21;17.42;;;12.15;;
33690;SDS011;20026;50.058;18.428;2023-05-07T13:21:48;14.95;;;10.27;;
33690;SDS011;20026;50.058;18.428;2023-05-07T13:24:14;17.95;;;11.63;;
33690;SDS011;20026;50.058;18.428;2023-05-07T13:26:41;30.33;;;18.13;;
33690;SDS011;20026;50.058;18.428;2023-05-07T13:29:07;23.33;;;14.90;;
33690;SDS011;20026;50.058;18.428;2023-05-07T13:31:33;18.73;;;13.60;;
33690;SDS011;20026;50.058;18.428;2023-05-07T13:34:00;17.92;;;12.85;;
33690;SDS011;20026;50.058;18.428;2023-05-07T13:36:26;16.02;;;10.52;;
33690;SDS011;20026;50.058;18.428;2023-05-07T13:38:53;14.25;;;9.23;;
33690;SDS011;20026;50.058;18.428;2023-05-07T13:41:20;11.52;;;9.68;;
33690;SDS011;20026;50.058;18.428;2023-05-07T13:43:47;12.88;;;9.27;;
33690;SDS011;20026;50.058;18.428;2023-05-07T13:46:13;12.38;;;10.23;;
33690;SDS011;20026;50.058;18.428;2023-05-07T13:48:39;17.27;;;11.27;;
33690;SDS011;20026;50.058;18.428;2023-05-07T13:51:06;23.02;;;15.10;;
33690;SDS011;20026;50.058;18.428;2023-05-07T13:53:32;19.42;;;13.60;;
33690;SDS011;20026;50.058;18.428;2023-05-07T13:55:58;18.88;;;11.32;;
33690;SDS011;20026;50.058;18.428;2023-05-07T13:58:24;13.88;;;9.13;;
33690;SDS011;20026;50.058;18.428;2023-05-07T14:00:51;12.48;;;9.25;;
33690;SDS011;20026;50.058;18.428;2023-05-07T14:03:18;12.30;;;9.60;;
33690;SDS011;20026;50.058;18.428;2023-05-07T14:05:44;13.75;;;9.02;;
33690;SDS011;20026;50.058;18.428;2023-05-07T14:08:11;15.75;;;11.10;;
33690;SDS011;20026;50.058;18.428;2023-05-07T14:10:39;21.42;;;13.07;;
33690;SDS011;20026;50.058;18.428;2023-05-07T14:13:06;13.95;;;9.48;;
33690;SDS011;20026;50.058;18.428;2023-05-07T14:15:32;16.90;;;11.27;;
33690;SDS011;20026;50.058;18.428;2023-05-07T14:18:00;13.88;;;10.45;;
33690;SDS011;20026;50.058;18.428;2023-05-07T14:20:26;15.43;;;10.10;;
33690;SDS011;20026;50.058;18.428;2023-05-07T14:22:53;10.60;;;9.20;;
33690;SDS011;20026;50.058;18.428;2023-05-07T14:25:19;11.50;;;9.25;;
33690;SDS011;20026;50.058;18.428;2023-05-07T14:27:46;18.63;;;11.73;;
33690;SDS011;20026;50.058;18.428;2023-05-07T14:30:12;13.05;;;10.00;;
33690;SDS011;20026;50.058;18.428;2023-05-07T14:32:39;20.75;;;15.38;;
33690;SDS011;20026;50.058;18.428;2023-05-07T14:35:05;15.27;;;12.35;;
33690;SDS011;20026;50.058;18.428;2023-05-07T14:37:32;13.10;;;8.93;;
33690;SDS011;20026;50.058;18.428;2023-05-07T14:39:58;15.73;;;8.63;;
33690;SDS011;20026;50.058;18.428;2023-05-07T14:42:25;11.60;;;8.43;;
33690;SDS011;20026;50.058;18.428;2023-05-07T14:44:51;12.68;;;9.35;;